Terminal Aerodrome Forecast
Issued by NWS Cleveland, OH

Home | Current Version | Previous Version | Text Only | Print | Product List | Glossary Off
Versions: 1 2 3 4 5 6 7 8 9 10 11 12 13 14 15 16 17

000
FTUS41 KCLE 180540
TAFYNG
TAF
KYNG 180540Z 1806/1906 26010KT P6SM OVC028
     FM181600 24006KT P6SM SCT035
     FM182300 12005KT P6SM -RA OVC040
     FM190100 10006KT P6SM -RA OVC015
     FM190300 09007KT 4SM -RA OVC007=

USA.gov is the U.S. government's official web portal to all federal, state and local government web resources and services.